createdAt,value
2018-12-14T13:31:00.926Z,84.85
2018-12-14T13:36:09.083Z,85.35
2018-12-14T13:41:15.469Z,84.66
2018-12-14T13:46:20.215Z,84.55
2018-12-14T13:51:27.492Z,84.00
2018-12-14T13:56:34.368Z,83.80
2018-12-14T14:01:44.568Z,84.32
2018-12-14T14:06:58.718Z,84.79
2018-12-14T14:12:09.496Z,83.90
2018-12-14T14:17:20.608Z,84.50
2018-12-14T14:22:26.094Z,84.46
2018-12-14T14:27:31.470Z,84.42
2018-12-14T14:32:36.024Z,85.25
2018-12-14T14:37:45.756Z,84.90
2018-12-14T14:42:50.592Z,85.54
2018-12-14T14:47:57.761Z,86.04
2018-12-14T14:53:06.147Z,86.03
2018-12-14T14:58:15.361Z,85.78
2018-12-14T15:03:19.635Z,86.04
2018-12-14T15:08:25.704Z,85.99
2018-12-14T15:13:31.158Z,86.28
2018-12-14T15:18:35.700Z,86.66
2018-12-14T15:23:46.554Z,86.90
2018-12-14T15:28:52.349Z,87.34
2018-12-14T15:33:57.338Z,87.72
2018-12-14T15:39:03.360Z,95.06
2018-12-14T15:44:10.556Z,88.00
2018-12-14T15:49:16.896Z,88.11
2018-12-14T15:54:23.246Z,87.03
2018-12-14T15:59:31.508Z,86.99
2018-12-14T16:10:00.678Z,87.59
2018-12-14T16:15:08.071Z,87.06
2018-12-14T16:20:12.632Z,87.38
2018-12-14T16:25:17.039Z,87.73
2018-12-14T16:30:21.562Z,87.46
2018-12-14T16:35:26.214Z,87.76
2018-12-14T16:40:39.341Z,87.78
2018-12-14T16:45:50.676Z,88.10
2018-12-14T16:50:56.588Z,88.58
2018-12-14T16:56:00.967Z,88.07
2018-12-14T17:01:05.481Z,88.60
2018-12-14T17:06:10.605Z,88.30
2018-12-14T17:11:14.940Z,89.28
2018-12-14T17:16:19.171Z,89.62
2018-12-14T17:21:25.488Z,89.53
2018-12-14T17:26:31.643Z,89.71
2018-12-14T17:31:37.592Z,89.51
2018-12-14T17:36:44.781Z,89.41
2018-12-14T17:41:54.985Z,90.27
2018-12-14T17:47:00.005Z,89.86
2018-12-14T17:52:05.456Z,90.02
2018-12-14T17:57:12.262Z,89.46
2018-12-14T18:02:16.690Z,89.41
2018-12-14T18:07:20.983Z,89.71
2018-12-14T18:12:25.689Z,89.72
2018-12-14T18:17:30.074Z,90.27
2018-12-14T18:22:35.764Z,90.45
2018-12-14T18:27:40.446Z,90.44
2018-12-14T18:32:44.760Z,90.12
2018-12-14T18:37:49.218Z,90.54
2018-12-14T18:42:54.099Z,90.85
2018-12-14T18:47:58.419Z,90.58
2018-12-14T18:53:06.720Z,90.26
2018-12-14T18:58:11.513Z,90.31
2018-12-14T19:03:15.704Z,89.73
2018-12-14T19:08:20.392Z,89.55
2018-12-14T19:13:25.970Z,89.62
2018-12-14T19:18:34.384Z,89.65
2018-12-14T19:23:39.213Z,89.79
2018-12-14T19:28:44.024Z,90.16
2018-12-14T19:33:48.402Z,89.93
2018-12-14T19:38:52.873Z,89.49
2018-12-14T19:43:57.219Z,89.97
2018-12-14T19:49:01.410Z,90.24
2018-12-14T19:54:08.531Z,90.63
2018-12-14T19:59:15.786Z,90.41
2018-12-14T20:04:23.071Z,90.26
2018-12-14T20:09:31.655Z,90.17
2018-12-14T20:14:39.981Z,90.74
2018-12-14T20:19:53.223Z,90.80
2018-12-14T20:24:57.711Z,90.53
2018-12-14T20:30:01.964Z,90.75
2018-12-14T20:35:06.911Z,91.15
2018-12-14T20:40:11.253Z,91.39
2018-12-14T20:45:15.543Z,91.12
2018-12-14T20:50:24.260Z,90.88
2018-12-14T20:55:28.658Z,91.71
2018-12-14T21:00:33.023Z,91.90
2018-12-14T21:05:37.387Z,91.85
2018-12-14T21:11:04.793Z,91.59
2018-12-14T21:16:11.429Z,91.79
2018-12-14T21:21:19.184Z,91.92
2018-12-14T21:26:23.805Z,92.09
2018-12-14T21:31:28.365Z,91.92
2018-12-14T21:36:33.817Z,91.75
2018-12-14T21:41:38.059Z,92.36
2018-12-14T21:46:42.395Z,92.65
2018-12-14T21:51:46.839Z,92.22
2018-12-14T21:56:52.017Z,91.81
2018-12-14T22:01:57.220Z,91.78
2018-12-14T22:07:02.253Z,91.40
2018-12-14T22:12:08.827Z,91.12
2018-12-14T22:17:13.601Z,90.85
2018-12-14T22:22:17.800Z,91.05
2018-12-14T22:27:22.038Z,90.39
2018-12-14T22:32:26.349Z,90.38
2018-12-14T22:37:30.455Z,90.39
2018-12-14T22:42:34.696Z,90.12
2018-12-14T22:47:38.927Z,90.52
2018-12-14T22:52:43.199Z,91.07
2018-12-14T22:57:47.453Z,90.33
2018-12-14T23:02:51.807Z,90.62
2018-12-14T23:07:56.353Z,90.66
2018-12-14T23:13:01.468Z,90.33
2018-12-14T23:18:05.727Z,89.58
2018-12-14T23:23:10.043Z,89.97
2018-12-14T23:28:14.413Z,89.31
2018-12-14T23:33:18.745Z,89.92
2018-12-14T23:38:23.745Z,89.78
2018-12-14T23:43:28.001Z,89.99
2018-12-14T23:48:32.178Z,89.82
2018-12-14T23:53:39.526Z,89.75
2018-12-14T23:58:43.774Z,89.11
